Catàleg de serveis del Meteocat
Campanya meteocatpedra

Dades de l'estació automàtica la Tosa d'Alp 2500

?
?
Resum diari 21:00 TU
Dades diàries de l'estació meteorològica
Temperatura mitjana 9.5 °C
Temperatura màxima 11.8 °C 11:51 TU
Temperatura mínima 7.4 °C 5:06 TU
Humitat relativa mitjana 97%
Ratxa màxima del vent (10 m) 34.6 km/h - 181º 16:36 TU
Irradiació solar global 17.3 MJ/m2

El tram horari està expressat en Temps Universal (TU). Cal sumar una hora en horari d'hivern i dues en horari d'estiu per passar a l'hora oficial.

la Tosa d'Alp 2500

Metadades estació meteorol´gica
Municipi Alp
Comarca Cerdanya
Altitud 2478 m
Data alta 04.09.2014
Estat actual Operativa
Dades de període
Període
TU
TM
°C
TX
°C
TN
°C
HRM
%
VVM (10 m)
km/h
DVM (10 m)
graus
VVX (10 m)
km/h
RS
W/m2
00:00 - 00:30 8.6 8.7 8.5 94 18.4 254 31.3 0
00:30 - 01:00 8.5 8.6 8.4 97 17.6 256 29.9 0
01:00 - 01:30 8.3 8.4 8.2 100 16.9 250 29.5 0
01:30 - 02:00 8.2 8.2 8.2 100 18.0 262 28.8 0
02:00 - 02:30 8.1 8.2 8.1 100 15.1 261 26.3 0
02:30 - 03:00 8.0 8.1 7.9 100 15.1 267 25.9 0
03:00 - 03:30 8.0 8.1 7.9 100 14.4 261 24.8 0
03:30 - 04:00 8.0 8.1 7.9 100 14.0 257 22.7 0
04:00 - 04:30 7.9 8.0 7.7 100 13.7 259 21.2 0
04:30 - 05:00 7.8 8.0 7.6 100 12.6 250 20.5 20
05:00 - 05:30 7.6 7.8 7.4 100 16.6 256 23.8 115
05:30 - 06:00 7.9 8.0 7.8 100 14.4 247 20.5 97
06:00 - 06:30 8.0 8.2 7.9 100 13.7 241 20.2 176
06:30 - 07:00 8.1 8.5 7.7 100 14.0 254 27.4 354
07:00 - 07:30 8.6 8.8 8.4 99 15.5 251 24.8 476
07:30 - 08:00 8.5 8.7 8.4 100 17.3 236 27.4 373
08:00 - 08:30 9.4 9.8 8.8 96 10.8 259 25.2 492
08:30 - 09:00 9.3 10.0 9.1 98 11.5 257 24.8 510
09:00 - 09:30 9.9 10.2 9.3 91 9.0 241 19.1 461
09:30 - 10:00 9.9 10.3 9.3 90 10.4 201 20.2 490
10:00 - 10:30 10.1 10.4 9.8 91 10.4 199 18.0 367
10:30 - 11:00 10.7 11.3 10.2 86 11.9 193 20.2 399
11:00 - 11:30 10.8 11.4 10.5 87 12.2 206 19.8 486
11:30 - 12:00 11.2 11.8 10.6 85 12.6 204 20.5 609
12:00 - 12:30 10.8 11.4 10.5 92 13.3 190 23.4 398
12:30 - 13:00 11.1 11.8 10.3 90 15.8 193 23.8 786
13:00 - 13:30 11.1 11.4 10.6 92 19.1 186 28.1 709
13:30 - 14:00 10.8 11.1 10.4 96 18.7 186 28.4 539
14:00 - 14:30 11.0 11.7 10.8 95 19.8 185 26.6 550
14:30 - 15:00 11.1 11.8 10.7 96 21.2 195 28.8 469
15:00 - 15:30 11.0 11.3 10.8 99 22.7 199 29.5 338
15:30 - 16:00 10.6 10.9 10.4 100 18.7 208 29.2 127
16:00 - 16:30 10.5 10.7 10.2 100 19.8 203 32.0 94
16:30 - 17:00 10.2 10.4 9.9 100 25.2 185 34.6 56
17:00 - 17:30 10.1 10.3 9.8 100 15.8 226 31.3 28
17:30 - 18:00 10.0 10.2 9.7 100 15.5 217 23.8 40
18:00 - 18:30 10.0 10.2 9.9 100 10.4 248 21.6 17
18:30 - 19:00 10.2 10.3 10.1 100 10.8 272 19.8 15
19:00 - 19:30 10.2 10.4 9.9 100 9.0 258 21.6 1
19:30 - 20:00 9.8 10.2 9.3 100 11.5 307 23.8 0
20:00 - 20:30 9.5 9.7 9.3 100 10.8 292 19.4 0
20:30 - 21:00 9.2 9.3 9.0 100 9.7 303 17.6 0
21:00 - 21:30 9.2 9.3 9.0 100 13.3 301 27.0 0

Les dades en taronja només han passat un control de qualitat automàtic. Resta pendent la seva validació definitiva.